Time;durP1;ratioP1;P1;durP2;ratioP2;P2;SDS_P1;SDS_P2;PMS_P1;PMS_P2;Temp;Humidity;BMP_temperature;BMP_pressure;BME280_temperature;BME280_humidity;BME280_pressure;Samples;Min_cycle;Max_cycle;Signal;HPM_P1;HPM_P2
2021/06/25 00:02:23;;;;;;;4.07;1.58;;;16.10;99.90;;;;;;5071072;28;20501;-81
2021/06/25 00:04:49;;;;;;;3.67;1.45;;;16.00;99.90;;;;;;5055774;28;20037;-81
2021/06/25 00:07:15;;;;;;;3.13;1.48;;;16.00;99.90;;;;;;5073232;28;20518;-81
2021/06/25 00:09:41;;;;;;;2.67;1.30;;;16.00;99.90;;;;;;5075736;28;20107;-81
2021/06/25 00:12:08;;;;;;;4.30;1.25;;;16.00;99.90;;;;;;5075603;28;20037;-81
2021/06/25 00:14:35;;;;;;;2.33;1.30;;;16.00;99.90;;;;;;5076428;28;20035;-81
2021/06/25 00:17:02;;;;;;;3.30;1.55;;;15.90;99.90;;;;;;5075122;28;20119;-81
2021/06/25 00:19:28;;;;;;;3.55;1.38;;;16.10;99.90;;;;;;5072687;28;20032;-82
2021/06/25 00:21:54;;;;;;;2.05;1.10;;;16.00;99.90;;;;;;5055517;28;20037;-82
2021/06/25 00:24:21;;;;;;;2.78;1.38;;;15.90;99.90;;;;;;5055270;28;20035;-82
2021/06/25 00:26:49;;;;;;;2.30;1.20;;;15.90;99.90;;;;;;5055267;28;20090;-84
2021/06/25 00:29:14;;;;;;;3.42;1.35;;;15.90;99.90;;;;;;5069809;28;20035;-85
2021/06/25 00:31:40;;;;;;;4.95;1.35;;;15.80;99.90;;;;;;5056559;28;20029;-85
2021/06/25 00:34:06;;;;;;;2.58;0.98;;;15.80;99.90;;;;;;5056217;28;20025;-84
2021/06/25 00:36:31;;;;;;;3.03;1.20;;;15.80;99.90;;;;;;5066247;28;20095;-85
2021/06/25 00:38:58;;;;;;;2.45;1.17;;;15.80;99.90;;;;;;5075480;28;20048;-85
2021/06/25 00:41:23;;;;;;;3.53;1.45;;;15.80;99.90;;;;;;5075956;28;20101;-84
2021/06/25 00:43:49;;;;;;;3.28;1.20;;;15.80;99.90;;;;;;5075434;28;20020;-84
2021/06/25 00:46:15;;;;;;;2.95;1.40;;;15.80;99.90;;;;;;5054836;28;20120;-84
2021/06/25 00:48:40;;;;;;;2.70;1.40;;;15.80;99.90;;;;;;5054805;28;20029;-84
2021/06/25 00:51:06;;;;;;;2.88;1.20;;;15.80;99.90;;;;;;5055809;28;20036;-84
2021/06/25 00:53:31;;;;;;;3.90;1.30;;;15.90;99.90;;;;;;5055830;28;20024;-85
2021/06/25 00:55:57;;;;;;;3.45;1.33;;;15.90;99.90;;;;;;5056084;28;20029;-85
2021/06/25 00:58:23;;;;;;;3.53;1.25;;;15.90;99.90;;;;;;5055945;28;20406;-84
2021/06/25 01:00:49;;;;;;;3.70;1.25;;;16.00;99.90;;;;;;5053914;28;20155;-84
2021/06/25 01:03:15;;;;;;;2.28;1.10;;;16.00;99.90;;;;;;5066724;28;20466;-82
2021/06/25 01:05:42;;;;;;;2.42;1.33;;;16.10;99.90;;;;;;5073632;28;20098;-81
2021/06/25 01:08:08;;;;;;;2.20;1.15;;;16.00;99.90;;;;;;5075469;28;20028;-81
2021/06/25 01:10:36;;;;;;;1.45;0.68;;;16.00;99.90;;;;;;5072413;28;20028;-82
2021/06/25 01:13:01;;;;;;;1.95;0.85;;;16.00;99.90;;;;;;5055150;28;20033;-82
2021/06/25 01:15:27;;;;;;;2.47;1.23;;;16.00;99.90;;;;;;5055857;28;20032;-82
2021/06/25 01:17:53;;;;;;;2.33;0.70;;;16.00;99.90;;;;;;5055832;28;20032;-83
2021/06/25 01:20:30;;;;;;;1.63;0.88;;;16.10;99.90;;;;;;5066846;28;20446;-83
2021/06/25 01:22:56;;;;;;;4.13;0.77;;;16.00;99.90;;;;;;5063331;28;20084;-83
2021/06/25 01:25:24;;;;;;;1.88;0.90;;;15.90;99.90;;;;;;5075466;28;20028;-83
2021/06/25 01:27:56;;;;;;;1.55;0.60;;;15.90;99.90;;;;;;5071415;28;20658;-83
2021/06/25 01:30:24;;;;;;;3.08;0.90;;;15.90;99.90;;;;;;5054275;28;20108;-83
2021/06/25 01:32:50;;;;;;;1.80;0.80;;;16.00;99.90;;;;;;5053975;28;20029;-83
2021/06/25 01:35:17;;;;;;;2.25;0.50;;;16.00;99.90;;;;;;5054887;28;20024;-83
2021/06/25 01:37:43;;;;;;;1.45;0.60;;;16.00;99.90;;;;;;5072727;28;20040;-83
2021/06/25 01:40:11;;;;;;;1.88;0.68;;;16.00;99.90;;;;;;5075006;28;20098;-84
2021/06/25 01:42:39;;;;;;;1.80;0.70;;;15.90;99.90;;;;;;5074924;28;20032;-83
2021/06/25 01:45:08;;;;;;;1.45;0.68;;;16.00;99.90;;;;;;5068694;28;20151;-84
2021/06/25 01:47:38;;;;;;;1.05;0.50;;;16.00;99.90;;;;;;5054726;28;20025;-84
2021/06/25 01:50:10;;;;;;;1.13;0.52;;;16.00;99.90;;;;;;5052907;28;20030;-84
2021/06/25 01:52:36;;;;;;;0.85;0.35;;;16.00;99.90;;;;;;5054635;28;20439;-84
2021/06/25 01:55:02;;;;;;;0.73;0.40;;;15.90;99.90;;;;;;5053261;28;20068;-84
2021/06/25 01:57:30;;;;;;;1.27;0.50;;;15.90;99.90;;;;;;5054721;28;20490;-84
2021/06/25 01:59:56;;;;;;;1.60;0.50;;;15.90;99.90;;;;;;5054338;28;20067;-84
2021/06/25 02:02:22;;;;;;;1.17;0.60;;;15.90;99.90;;;;;;5068973;28;20025;-84
2021/06/25 02:04:47;;;;;;;1.80;0.47;;;15.90;99.90;;;;;;5061586;28;20029;-84
2021/06/25 02:07:13;;;;;;;2.50;0.60;;;15.90;99.90;;;;;;5074123;28;20704;-85
2021/06/25 02:09:39;;;;;;;1.83;0.55;;;15.90;99.90;;;;;;5059583;28;20112;-84
2021/06/25 02:12:05;;;;;;;1.17;0.50;;;15.80;99.90;;;;;;5054528;28;20017;-84
2021/06/25 02:14:31;;;;;;;1.73;0.80;;;15.90;99.90;;;;;;5069206;28;20028;-84
2021/06/25 02:16:57;;;;;;;1.58;0.60;;;15.90;99.90;;;;;;5052741;28;20025;-84
2021/06/25 02:19:24;;;;;;;1.60;0.63;;;15.90;99.90;;;;;;5065598;28;20033;-84
2021/06/25 02:21:50;;;;;;;2.28;1.00;;;15.90;99.90;;;;;;5072922;28;20029;-85
2021/06/25 02:24:16;;;;;;;2.08;0.70;;;15.90;99.90;;;;;;5072106;28;20030;-83
2021/06/25 02:26:42;;;;;;;1.52;0.70;;;15.90;99.90;;;;;;5072027;28;20024;-83
2021/06/25 02:29:08;;;;;;;1.48;0.80;;;15.80;99.90;;;;;;5073287;28;20031;-84
2021/06/25 02:31:33;;;;;;;1.65;0.65;;;15.90;99.90;;;;;;5073001;28;20016;-84
2021/06/25 02:33:59;;;;;;;1.90;0.70;;;16.00;99.90;;;;;;5056525;28;20108;-84
2021/06/25 02:36:25;;;;;;;1.48;0.70;;;16.00;99.90;;;;;;5061920;28;20025;-84
2021/06/25 02:38:50;;;;;;;2.72;0.85;;;16.00;99.90;;;;;;5073784;28;20512;-84
2021/06/25 02:41:17;;;;;;;1.58;0.80;;;16.10;99.90;;;;;;5064461;28;20029;-84
2021/06/25 02:43:43;;;;;;;2.22;1.00;;;16.10;99.90;;;;;;5069010;28;20114;-84
2021/06/25 02:46:09;;;;;;;2.53;0.98;;;16.00;99.90;;;;;;5054523;28;20032;-83
2021/06/25 02:48:35;;;;;;;1.60;0.77;;;16.00;99.90;;;;;;5073922;28;20032;-84
2021/06/25 02:51:00;;;;;;;1.90;0.68;;;16.00;99.90;;;;;;5060130;28;20056;-84
2021/06/25 02:53:26;;;;;;;1.27;0.60;;;16.00;99.90;;;;;;5053762;28;20028;-84
2021/06/25 02:55:51;;;;;;;2.40;0.82;;;16.00;99.90;;;;;;5054220;28;20074;-84
2021/06/25 02:58:19;;;;;;;1.83;0.80;;;16.00;99.90;;;;;;5073198;28;20028;-84
2021/06/25 03:00:44;;;;;;;2.53;1.05;;;16.10;99.90;;;;;;5073138;28;20017;-84
2021/06/25 03:03:10;;;;;;;2.50;1.17;;;16.00;99.90;;;;;;5074105;28;20474;-84
2021/06/25 03:05:36;;;;;;;2.30;1.00;;;15.90;99.90;;;;;;5062330;28;20115;-84
2021/06/25 03:08:02;;;;;;;2.17;0.90;;;15.90;99.90;;;;;;5069425;28;20032;-84
2021/06/25 03:10:27;;;;;;;2.40;0.90;;;16.00;99.90;;;;;;5072505;28;20024;-83
2021/06/25 03:12:53;;;;;;;2.35;1.00;;;16.00;99.90;;;;;;5072213;28;20020;-84
2021/06/25 03:15:18;;;;;;;2.58;1.15;;;16.00;99.90;;;;;;5072435;28;20033;-83
2021/06/25 03:17:44;;;;;;;3.15;1.10;;;15.90;99.90;;;;;;5072984;28;20025;-83
2021/06/25 03:20:10;;;;;;;2.50;0.77;;;15.90;99.90;;;;;;5072519;28;20478;-83
2021/06/25 03:22:36;;;;;;;2.45;0.90;;;15.80;99.90;;;;;;5071741;28;20402;-83
2021/06/25 03:25:03;;;;;;;2.63;1.25;;;15.70;99.90;;;;;;5069741;28;20032;-83
2021/06/25 03:27:29;;;;;;;2.00;1.00;;;15.70;99.90;;;;;;5075469;28;20062;-83
2021/06/25 03:29:54;;;;;;;3.15;0.88;;;15.60;99.90;;;;;;5076793;28;20040;-83
2021/06/25 03:32:20;;;;;;;2.10;1.05;;;15.60;99.90;;;;;;5074330;28;20028;-83
2021/06/25 03:34:45;;;;;;;2.00;1.02;;;15.60;99.90;;;;;;5072568;28;20036;-84
2021/06/25 03:37:11;;;;;;;1.70;0.90;;;15.60;99.90;;;;;;5070912;28;20074;-83
2021/06/25 03:39:36;;;;;;;2.20;0.95;;;15.60;99.90;;;;;;5075677;28;20044;-84
2021/06/25 03:42:03;;;;;;;2.17;1.20;;;15.50;99.90;;;;;;5069143;28;20033;-83
2021/06/25 03:44:28;;;;;;;2.58;0.95;;;15.50;99.90;;;;;;5057239;28;20068;-83
2021/06/25 03:46:54;;;;;;;4.68;1.52;;;15.50;99.90;;;;;;5064148;28;20020;-84
2021/06/25 03:49:19;;;;;;;1.90;0.80;;;15.40;99.90;;;;;;5076896;28;20042;-83
2021/06/25 03:51:45;;;;;;;2.40;1.08;;;15.50;99.90;;;;;;5076510;28;20024;-83
2021/06/25 03:54:10;;;;;;;2.03;1.08;;;15.40;99.90;;;;;;5077709;28;20108;-83
2021/06/25 03:56:36;;;;;;;1.98;1.00;;;15.50;99.90;;;;;;5074069;28;20473;-83
2021/06/25 03:59:02;;;;;;;2.65;1.00;;;15.50;99.90;;;;;;5072902;28;20696;-82
2021/06/25 04:01:27;;;;;;;2.55;1.05;;;15.50;99.90;;;;;;5062289;28;20024;-83
2021/06/25 04:03:53;;;;;;;1.75;1.05;;;15.50;99.90;;;;;;5066624;28;20028;-83
2021/06/25 04:06:18;;;;;;;4.43;1.20;;;15.50;99.90;;;;;;5060321;28;20478;-83
2021/06/25 04:08:47;;;;;;;2.40;1.10;;;15.60;99.90;;;;;;5063939;28;20024;-83
2021/06/25 04:11:13;;;;;;;3.05;1.40;;;15.60;99.90;;;;;;5061321;28;20025;-83
2021/06/25 04:13:38;;;;;;;4.28;1.80;;;15.60;99.90;;;;;;5064812;28;20052;-83
2021/06/25 04:16:04;;;;;;;7.88;3.28;;;15.60;99.90;;;;;;5065425;28;20024;-84
2021/06/25 04:18:30;;;;;;;6.80;3.00;;;15.50;99.90;;;;;;5076158;28;20103;-84
2021/06/25 04:20:57;;;;;;;6.88;3.40;;;15.40;99.90;;;;;;5081607;28;20029;-83
2021/06/25 04:23:23;;;;;;;6.18;2.80;;;15.40;99.90;;;;;;5073534;28;20489;-84
2021/06/25 04:25:48;;;;;;;6.97;3.38;;;15.40;99.90;;;;;;5075036;28;20027;-84
2021/06/25 04:28:14;;;;;;;6.70;3.47;;;15.40;99.90;;;;;;5069974;28;20028;-83
2021/06/25 04:30:41;;;;;;;4.93;2.75;;;15.40;99.90;;;;;;5072687;28;20059;-83
2021/06/25 04:33:09;;;;;;;4.65;2.10;;;15.30;99.90;;;;;;5060512;28;20029;-83
2021/06/25 04:35:35;;;;;;;5.03;2.40;;;15.40;99.90;;;;;;5059631;28;20051;-84
2021/06/25 04:38:02;;;;;;;4.10;1.90;;;15.40;99.90;;;;;;5065289;28;20081;-84
2021/06/25 04:40:33;;;;;;;3.63;1.55;;;15.40;99.90;;;;;;5058496;28;20021;-84
2021/06/25 04:42:59;;;;;;;3.50;1.37;;;15.40;99.90;;;;;;5058178;28;20025;-84
2021/06/25 04:45:25;;;;;;;6.22;1.15;;;15.40;99.90;;;;;;5055416;28;20475;-83
2021/06/25 04:47:51;;;;;;;3.03;0.98;;;15.40;99.90;;;;;;5054654;28;20021;-83
2021/06/25 04:50:17;;;;;;;2.88;1.35;;;15.50;99.90;;;;;;5051661;28;20025;-84
2021/06/25 04:52:43;;;;;;;3.30;1.60;;;15.40;99.90;;;;;;5055360;28;20024;-84
2021/06/25 04:55:09;;;;;;;4.32;1.65;;;15.50;99.90;;;;;;5054617;28;20032;-84
2021/06/25 04:57:36;;;;;;;4.40;1.50;;;15.50;99.90;;;;;;5056865;28;20024;-82
2021/06/25 05:00:04;;;;;;;2.80;1.13;;;15.60;99.90;;;;;;5058490;28;20104;-83
2021/06/25 05:02:30;;;;;;;3.10;1.17;;;15.60;99.90;;;;;;5059689;28;20102;-84
2021/06/25 05:04:55;;;;;;;2.15;1.00;;;15.60;99.90;;;;;;5054514;28;20053;-84
2021/06/25 05:07:21;;;;;;;2.05;0.98;;;15.60;99.90;;;;;;5061765;28;20025;-84
2021/06/25 05:09:47;;;;;;;1.98;0.80;;;15.60;99.90;;;;;;5070338;28;20028;-84
2021/06/25 05:12:12;;;;;;;3.58;1.05;;;15.70;99.90;;;;;;5065738;28;20021;-84
2021/06/25 05:14:38;;;;;;;2.40;1.10;;;15.70;99.90;;;;;;5069844;28;20009;-85
2021/06/25 05:17:04;;;;;;;3.50;1.17;;;15.80;99.90;;;;;;5070961;28;20044;-84
2021/06/25 05:19:29;;;;;;;2.35;0.98;;;15.60;99.90;;;;;;5062197;28;20036;-85
2021/06/25 05:21:55;;;;;;;2.55;0.98;;;15.80;99.90;;;;;;5050488;28;20051;-84
2021/06/25 05:24:21;;;;;;;3.15;0.80;;;15.80;99.90;;;;;;5065067;28;20052;-84
2021/06/25 05:26:46;;;;;;;2.50;0.90;;;15.70;99.90;;;;;;5074214;28;20035;-85
2021/06/25 05:29:13;;;;;;;1.73;0.77;;;15.70;99.90;;;;;;5068127;28;20029;-84
2021/06/25 05:31:38;;;;;;;2.10;0.80;;;15.80;99.90;;;;;;5070349;28;20526;-85
2021/06/25 05:34:04;;;;;;;1.75;0.77;;;15.70;99.90;;;;;;5060858;28;20024;-85
2021/06/25 05:36:30;;;;;;;2.08;0.80;;;15.90;99.90;;;;;;5063120;28;20025;-84
2021/06/25 05:38:55;;;;;;;1.63;0.75;;;15.90;99.90;;;;;;5053632;28;20033;-84
2021/06/25 05:41:21;;;;;;;2.80;0.85;;;15.90;99.90;;;;;;5079134;28;20029;-84
2021/06/25 05:43:50;;;;;;;1.48;0.70;;;15.90;99.90;;;;;;5090967;28;20389;-84
2021/06/25 05:46:15;;;;;;;1.23;0.50;;;15.90;99.90;;;;;;5090780;28;20036;-83
2021/06/25 05:48:44;;;;;;;0.90;0.50;;;15.80;99.90;;;;;;5052271;28;20049;-83
2021/06/25 05:51:09;;;;;;;1.45;0.55;;;15.80;99.90;;;;;;5051715;28;20171;-82
2021/06/25 05:53:35;;;;;;;1.58;0.60;;;15.80;99.90;;;;;;5052076;28;20542;-83
2021/06/25 05:56:01;;;;;;;1.73;0.50;;;15.80;99.90;;;;;;5073103;28;20032;-83
2021/06/25 05:58:27;;;;;;;1.10;0.50;;;15.90;99.90;;;;;;5071641;28;20048;-83
2021/06/25 06:00:52;;;;;;;1.23;0.50;;;15.90;99.90;;;;;;5070974;28;20032;-84
2021/06/25 06:03:18;;;;;;;1.08;0.30;;;15.90;99.90;;;;;;5052387;28;20064;-84
2021/06/25 06:05:43;;;;;;;1.33;0.50;;;15.80;99.90;;;;;;5051813;28;20021;-83
2021/06/25 06:08:09;;;;;;;1.52;0.50;;;15.80;99.90;;;;;;5069342;28;20479;-84
2021/06/25 06:10:35;;;;;;;1.40;0.50;;;15.90;99.90;;;;;;5080167;28;20657;-81
2021/06/25 06:13:01;;;;;;;0.90;0.32;;;15.90;99.90;;;;;;5069692;28;20028;-81
2021/06/25 06:15:27;;;;;;;0.90;0.30;;;16.00;99.90;;;;;;5057313;28;20393;-82
2021/06/25 06:17:53;;;;;;;0.98;0.50;;;15.90;99.90;;;;;;5074167;28;20024;-81
2021/06/25 06:20:22;;;;;;;0.80;0.28;;;15.90;99.90;;;;;;5074340;28;20032;-82
2021/06/25 06:31:16;;;;;;;2.33;0.40;;;16.00;99.90;;;;;;5085951;28;20089;-82
2021/06/25 06:33:47;;;;;;;1.88;0.43;;;16.10;99.90;;;;;;5090898;28;20032;-86
2021/06/25 06:39:06;;;;;;;1.02;0.47;;;16.00;99.90;;;;;;5076629;28;19908;-85
2021/06/25 06:41:33;;;;;;;2.08;0.82;;;16.00;99.90;;;;;;5090561;28;20024;-85
2021/06/25 06:44:00;;;;;;;1.65;0.50;;;16.10;99.90;;;;;;5060933;28;20036;-85
2021/06/25 06:46:25;;;;;;;1.23;0.50;;;16.30;99.90;;;;;;5075336;28;20029;-85
2021/06/25 06:48:52;;;;;;;1.83;0.50;;;16.50;99.90;;;;;;5073245;28;20074;-84
2021/06/25 06:51:19;;;;;;;1.17;0.50;;;16.60;99.90;;;;;;5063553;28;20025;-85
2021/06/25 06:53:45;;;;;;;6.15;1.75;;;16.80;99.90;;;;;;5066185;28;20024;-84
2021/06/25 06:56:13;;;;;;;4.05;1.05;;;16.80;99.90;;;;;;5050322;28;20047;-84
2021/06/25 06:58:39;;;;;;;2.03;0.50;;;16.90;99.90;;;;;;5069345;28;20469;-84
2021/06/25 07:01:06;;;;;;;1.88;0.50;;;16.90;99.90;;;;;;5077448;28;20040;-84
2021/06/25 07:03:34;;;;;;;5.00;0.73;;;16.90;99.90;;;;;;5070253;28;20093;-84
2021/06/25 07:06:00;;;;;;;10.63;1.65;;;16.90;99.90;;;;;;5063031;28;20038;-84
2021/06/25 07:08:26;;;;;;;2.83;0.82;;;17.00;99.90;;;;;;5068797;28;20055;-83
2021/06/25 07:10:52;;;;;;;3.60;0.88;;;17.00;99.90;;;;;;5073340;28;20033;-83
2021/06/25 07:13:17;;;;;;;1.75;0.60;;;16.90;99.90;;;;;;5050491;28;20078;-83
2021/06/25 07:15:44;;;;;;;4.72;0.60;;;16.90;99.90;;;;;;5076942;28;20025;-83
2021/06/25 07:18:10;;;;;;;1.92;0.50;;;16.80;99.90;;;;;;5059067;28;20111;-83
2021/06/25 07:20:37;;;;;;;3.22;0.43;;;16.80;99.90;;;;;;5063590;28;20458;-83
2021/06/25 07:23:03;;;;;;;2.58;0.52;;;16.70;99.90;;;;;;5063906;28;20068;-82
2021/06/25 07:25:29;;;;;;;1.40;0.30;;;16.70;99.90;;;;;;5050520;28;20119;-82
2021/06/25 07:27:55;;;;;;;1.85;0.45;;;16.60;99.90;;;;;;5068881;28;20108;-83
2021/06/25 07:30:21;;;;;;;2.10;0.50;;;16.60;99.90;;;;;;5066626;28;20112;-82
2021/06/25 07:32:47;;;;;;;1.27;0.63;;;16.70;99.90;;;;;;5074361;28;20020;-82
2021/06/25 07:35:13;;;;;;;1.63;0.70;;;16.60;99.90;;;;;;5072721;28;20025;-84
2021/06/25 07:37:39;;;;;;;10.13;0.85;;;16.60;99.90;;;;;;5052843;28;20060;-83
2021/06/25 07:40:06;;;;;;;10.02;1.20;;;16.60;99.90;;;;;;5052464;28;20029;-83
2021/06/25 07:42:32;;;;;;;4.47;0.65;;;16.70;99.90;;;;;;5044926;28;20020;-82
2021/06/25 07:44:59;;;;;;;4.95;0.90;;;16.60;99.90;;;;;;5068566;28;20024;-82
2021/06/25 07:47:25;;;;;;;2.85;0.60;;;16.80;99.90;;;;;;5067772;28;20032;-83
2021/06/25 07:49:52;;;;;;;1.65;0.65;;;16.80;99.90;;;;;;5061090;28;20525;-82
2021/06/25 07:52:18;;;;;;;3.40;0.70;;;16.80;99.90;;;;;;5049418;28;20498;-82
2021/06/25 07:54:44;;;;;;;1.48;0.60;;;17.00;99.90;;;;;;5056726;28;20028;-83
2021/06/25 07:57:09;;;;;;;1.35;0.63;;;17.00;99.90;;;;;;5068154;28;20086;-82
2021/06/25 07:59:35;;;;;;;2.75;1.00;;;17.10;99.90;;;;;;5051050;28;20144;-82
2021/06/25 08:02:01;;;;;;;2.38;1.00;;;17.10;99.90;;;;;;5047874;28;20521;-83
2021/06/25 08:04:28;;;;;;;2.67;1.30;;;17.10;99.90;;;;;;5077824;28;20459;-83
2021/06/25 08:06:55;;;;;;;5.40;1.30;;;17.10;99.90;;;;;;5079592;28;20017;-82
2021/06/25 08:09:21;;;;;;;3.28;1.35;;;17.10;99.90;;;;;;5059457;28;20032;-82
2021/06/25 08:11:46;;;;;;;6.80;1.80;;;17.20;99.90;;;;;;5057201;28;20020;-82
2021/06/25 08:14:12;;;;;;;16.13;2.78;;;17.30;99.90;;;;;;5084853;28;20426;-82
2021/06/25 08:16:38;;;;;;;7.78;2.00;;;17.30;99.90;;;;;;5073798;28;20020;-83
2021/06/25 08:19:06;;;;;;;4.72;1.70;;;17.40;99.90;;;;;;5055412;28;20359;-82
2021/06/25 08:21:31;;;;;;;3.35;1.52;;;17.50;99.90;;;;;;5061767;28;20380;-82
2021/06/25 08:23:58;;;;;;;3.58;1.80;;;17.70;99.90;;;;;;5055487;28;20037;-83
2021/06/25 08:26:24;;;;;;;5.13;2.15;;;17.70;99.90;;;;;;5056588;28;20024;-83
2021/06/25 08:28:49;;;;;;;4.00;2.38;;;17.90;99.90;;;;;;5062615;28;20028;-83
2021/06/25 08:31:16;;;;;;;3.30;1.88;;;18.10;99.90;;;;;;5062889;28;20786;-83
2021/06/25 08:33:43;;;;;;;3.63;1.75;;;18.40;99.90;;;;;;5064360;28;20116;-83
2021/06/25 08:36:09;;;;;;;3.50;1.75;;;18.50;99.90;;;;;;5075739;28;20409;-83
2021/06/25 08:38:35;;;;;;;4.90;1.58;;;18.70;99.90;;;;;;5091842;28;20027;-82
2021/06/25 08:41:01;;;;;;;7.45;2.03;;;18.90;99.90;;;;;;5070796;28;20435;-83
2021/06/25 08:43:27;;;;;;;5.60;2.15;;;19.00;99.90;;;;;;5070777;28;20108;-83
2021/06/25 08:45:54;;;;;;;17.85;5.30;;;19.10;99.90;;;;;;5071061;28;20051;-83
2021/06/25 08:48:24;;;;;;;8.57;3.33;;;19.30;99.90;;;;;;5072016;28;20020;-83
2021/06/25 08:50:53;;;;;;;4.40;1.90;;;19.30;99.90;;;;;;5054868;28;20037;-83
2021/06/25 08:53:18;;;;;;;9.98;3.22;;;19.00;99.90;;;;;;5052116;28;20031;-83
2021/06/25 08:55:44;;;;;;;5.35;2.15;;;19.00;99.90;;;;;;5051094;28;20021;-83
2021/06/25 08:58:20;;;;;;;4.65;1.83;;;18.80;99.90;;;;;;5052012;28;20028;-83
2021/06/25 09:00:46;;;;;;;6.60;2.20;;;18.70;99.90;;;;;;5051748;28;20522;-82
2021/06/25 09:03:23;;;;;;;2.78;1.50;;;18.50;99.90;;;;;;5054506;28;20031;-82
2021/06/25 09:05:49;;;;;;;3.63;1.70;;;18.30;99.90;;;;;;5073412;28;20035;-82
2021/06/25 09:08:29;;;;;;;2.78;1.42;;;18.10;99.90;;;;;;5067911;28;20140;-83
2021/06/25 09:11:00;;;;;;;5.47;2.10;;;17.90;99.90;;;;;;5062298;28;20033;-82
2021/06/25 09:13:34;;;;;;;4.50;1.93;;;17.80;99.90;;;;;;5050592;28;20025;-82
2021/06/25 09:16:01;;;;;;;3.33;1.67;;;17.60;99.90;;;;;;5058985;28;20032;-82
2021/06/25 09:18:27;;;;;;;3.95;1.58;;;17.60;99.90;;;;;;5070202;28;20056;-82
2021/06/25 09:20:53;;;;;;;4.68;2.28;;;17.60;99.90;;;;;;5052963;28;20473;-82
2021/06/25 09:23:33;;;;;;;5.15;2.05;;;17.60;99.90;;;;;;5070648;28;20048;-83
2021/06/25 09:26:20;;;;;;;3.88;1.98;;;17.50;99.90;;;;;;5060594;28;20111;-83
2021/06/25 09:28:48;;;;;;;4.55;2.47;;;17.40;99.90;;;;;;5077266;28;20043;-82
2021/06/25 09:31:22;;;;;;;5.60;2.85;;;17.30;99.90;;;;;;5091898;28;20020;-82
2021/06/25 09:33:55;;;;;;;7.40;2.80;;;17.20;99.90;;;;;;5077034;28;20494;-82
2021/06/25 09:36:27;;;;;;;4.47;2.28;;;17.20;99.90;;;;;;5051716;28;20079;-82
2021/06/25 09:38:57;;;;;;;5.20;2.53;;;17.10;99.90;;;;;;5051076;28;20697;-82
2021/06/25 09:41:24;;;;;;;5.38;2.92;;;17.20;99.90;;;;;;5073000;28;20644;-82
2021/06/25 09:44:01;;;;;;;5.00;2.90;;;17.20;99.90;;;;;;5078477;28;20497;-82
2021/06/25 09:46:31;;;;;;;6.78;3.28;;;17.20;99.90;;;;;;5078759;28;20482;-82
2021/06/25 09:49:05;;;;;;;6.47;3.03;;;17.30;99.90;;;;;;5069745;28;20017;-82
2021/06/25 09:51:32;;;;;;;4.68;2.83;;;17.20;99.90;;;;;;5051844;28;20505;-82
2021/06/25 09:54:12;;;;;;;5.47;2.88;;;17.20;99.90;;;;;;5049827;28;20021;-82
2021/06/25 09:56:44;;;;;;;5.10;3.00;;;17.30;99.90;;;;;;5050043;28;20059;-82
2021/06/25 10:02:22;;;;;;;5.68;3.17;;;17.30;99.90;;;;;;5053904;28;20029;-82
2021/06/25 10:04:52;;;;;;;5.25;3.08;;;17.40;99.90;;;;;;5063000;28;20028;-81
2021/06/25 10:07:20;;;;;;;8.05;3.28;;;17.60;99.90;;;;;;5076046;28;20111;-82
2021/06/25 10:09:48;;;;;;;5.45;3.30;;;17.60;99.90;;;;;;5057114;28;20115;-83
2021/06/25 10:12:17;;;;;;;5.03;2.80;;;17.70;99.90;;;;;;5055931;28;20028;-82
2021/06/25 10:14:44;;;;;;;5.10;3.17;;;17.70;99.90;;;;;;5070481;28;20247;-82
2021/06/25 10:17:12;;;;;;;5.60;3.40;;;17.70;99.90;;;;;;5070664;28;20523;-82
2021/06/25 10:19:42;;;;;;;5.50;3.35;;;17.80;99.90;;;;;;5069913;28;20040;-83
2021/06/25 10:22:10;;;;;;;5.30;3.30;;;17.80;99.90;;;;;;5065067;28;20024;-83
2021/06/25 10:24:38;;;;;;;6.40;3.13;;;18.00;99.90;;;;;;5068872;28;20525;-83
2021/06/25 10:27:05;;;;;;;6.55;3.72;;;18.00;99.90;;;;;;5053014;28;20017;-82
2021/06/25 10:29:34;;;;;;;7.30;3.22;;;18.20;99.90;;;;;;5043642;28;20036;-83
2021/06/25 10:32:02;;;;;;;6.15;3.85;;;18.20;99.90;;;;;;5058622;28;20083;-83
2021/06/25 10:34:32;;;;;;;6.40;3.58;;;18.30;99.90;;;;;;5059829;28;20024;-83
2021/06/25 10:37:01;;;;;;;5.55;3.70;;;18.30;99.90;;;;;;5056570;28;20044;-82
2021/06/25 10:39:26;;;;;;;5.60;3.78;;;18.30;99.90;;;;;;5059668;28;20040;-83
2021/06/25 10:41:56;;;;;;;5.57;3.20;;;18.40;99.90;;;;;;5054953;28;20438;-83
2021/06/25 10:44:59;;;;;;;6.40;3.45;;;18.20;99.90;;;;;;5058426;28;20037;-83
2021/06/25 10:47:32;;;;;;;7.10;3.20;;;18.20;99.90;;;;;;5073876;28;20040;-83
2021/06/25 10:52:27;;;;;;;5.28;3.03;;;18.20;99.90;;;;;;5069662;28;20016;-83
2021/06/25 10:55:11;;;;;;;6.40;3.60;;;18.20;99.90;;;;;;5064533;28;20029;-83
2021/06/25 10:57:57;;;;;;;5.75;3.20;;;18.40;99.90;;;;;;5072428;28;20016;-83
2021/06/25 11:00:25;;;;;;;6.90;3.63;;;18.60;99.90;;;;;;5087152;28;20028;-83
2021/06/25 11:02:51;;;;;;;6.75;3.72;;;18.70;99.90;;;;;;5089186;28;20028;-84
2021/06/25 11:05:29;;;;;;;6.20;4.05;;;18.70;99.90;;;;;;5062851;28;20121;-83
2021/06/25 11:08:02;;;;;;;7.15;4.35;;;18.80;99.90;;;;;;5077905;28;20443;-83
2021/06/25 11:10:33;;;;;;;7.15;3.78;;;18.80;99.90;;;;;;5063793;28;20024;-83
2021/06/25 11:13:16;;;;;;;6.35;4.20;;;18.70;99.90;;;;;;5052743;28;20025;-84
2021/06/25 11:15:43;;;;;;;6.82;4.35;;;18.60;99.90;;;;;;5060379;28;20194;-83
2021/06/25 11:18:18;;;;;;;6.15;4.00;;;18.70;99.90;;;;;;5055212;28;20444;-83
2021/06/25 11:20:55;;;;;;;6.05;3.67;;;18.60;99.90;;;;;;5066231;28;20120;-83
2021/06/25 11:23:41;;;;;;;7.57;4.43;;;18.60;99.90;;;;;;5072159;28;20024;-83
2021/06/25 11:26:19;;;;;;;6.38;3.88;;;18.70;99.90;;;;;;5073890;28;20382;-83
2021/06/25 11:28:46;;;;;;;5.90;3.47;;;18.80;99.90;;;;;;5067213;28;20132;-83
2021/06/25 11:31:17;;;;;;;7.15;4.18;;;18.70;99.90;;;;;;5083614;28;20024;-83
2021/06/25 11:33:50;;;;;;;7.03;4.32;;;18.80;99.90;;;;;;5062851;28;20027;-83
2021/06/25 11:36:24;;;;;;;7.43;4.40;;;18.80;99.90;;;;;;5058876;28;20147;-83
2021/06/25 11:38:52;;;;;;;7.93;4.75;;;18.90;99.90;;;;;;5049288;28;20035;-83
2021/06/25 11:41:18;;;;;;;8.48;5.18;;;18.90;99.90;;;;;;5052448;28;20029;-83
2021/06/25 11:43:50;;;;;;;8.02;5.40;;;19.10;99.90;;;;;;5059526;28;20091;-83
2021/06/25 11:46:18;;;;;;;8.82;5.65;;;19.10;99.90;;;;;;5063350;28;20033;-83
2021/06/25 11:48:45;;;;;;;11.00;5.97;;;19.10;99.90;;;;;;5055184;28;20111;-83
2021/06/25 11:51:13;;;;;;;9.93;5.65;;;19.20;99.90;;;;;;5056002;28;20071;-83
2021/06/25 11:53:43;;;;;;;8.60;5.53;;;19.10;99.90;;;;;;5057506;28;20020;-83
2021/06/25 11:56:22;;;;;;;10.25;6.18;;;19.10;99.90;;;;;;5059312;28;20108;-83
2021/06/25 11:59:09;;;;;;;8.73;5.82;;;19.30;99.90;;;;;;5056880;28;20025;-84
2021/06/25 12:01:55;;;;;;;11.23;6.93;;;19.50;99.90;;;;;;5052668;28;20047;-84
2021/06/25 12:04:42;;;;;;;10.43;6.25;;;19.30;99.90;;;;;;5065503;28;20021;-82
2021/06/25 12:07:10;;;;;;;10.00;6.18;;;19.50;99.90;;;;;;5060447;28;20509;-81
2021/06/25 12:09:40;;;;;;;9.43;5.82;;;19.50;99.90;;;;;;5063750;28;20123;-81
2021/06/25 12:12:07;;;;;;;9.68;5.70;;;19.50;99.90;;;;;;5070514;28;20025;-81
2021/06/25 12:14:43;;;;;;;9.27;5.10;;;19.60;99.90;;;;;;5072312;28;20032;-82
2021/06/25 12:17:08;;;;;;;7.43;4.82;;;19.60;99.90;;;;;;5054995;28;20028;-81
2021/06/25 12:19:34;;;;;;;7.97;4.50;;;19.60;99.90;;;;;;5061584;28;20143;-82
2021/06/25 12:22:10;;;;;;;7.45;4.57;;;20.00;99.90;;;;;;5059510;28;20402;-84
2021/06/25 12:24:53;;;;;;;6.35;4.20;;;20.30;99.90;;;;;;5056001;28;20054;-84
2021/06/25 12:27:33;;;;;;;8.80;4.88;;;20.80;99.90;;;;;;5071980;28;20029;-83
2021/06/25 12:30:03;;;;;;;6.72;4.38;;;21.10;99.90;;;;;;5081418;28;20114;-83
2021/06/25 12:32:29;;;;;;;6.55;3.83;;;21.60;99.90;;;;;;5071688;28;20056;-83
2021/06/25 12:34:57;;;;;;;6.55;3.92;;;21.80;99.90;;;;;;5055983;28;20025;-83
2021/06/25 12:37:24;;;;;;;7.07;3.90;;;21.70;99.90;;;;;;5070107;28;20028;-83
2021/06/25 12:39:51;;;;;;;5.88;3.60;;;21.80;99.90;;;;;;5072388;28;20478;-81
2021/06/25 12:42:23;;;;;;;5.43;3.40;;;22.00;99.90;;;;;;5064018;28;20040;-83
2021/06/25 12:44:49;;;;;;;5.38;3.38;;;22.00;99.90;;;;;;5072752;28;20028;-83
2021/06/25 12:47:15;;;;;;;6.50;3.60;;;22.00;99.90;;;;;;5057902;28;20040;-83
2021/06/25 12:49:43;;;;;;;6.25;3.50;;;21.70;99.90;;;;;;5056102;28;20043;-83
2021/06/25 12:52:25;;;;;;;4.65;3.17;;;21.50;99.90;;;;;;5060244;28;20028;-82
2021/06/25 12:54:51;;;;;;;4.60;2.70;;;21.10;99.90;;;;;;5063266;28;20113;-83
2021/06/25 12:57:21;;;;;;;5.18;3.13;;;20.80;99.90;;;;;;5058776;28;20044;-83
2021/06/25 12:59:53;;;;;;;4.82;2.80;;;20.50;99.90;;;;;;5059827;28;20570;-84
2021/06/25 13:02:19;;;;;;;5.20;3.08;;;20.40;99.90;;;;;;5050330;28;20361;-83
2021/06/25 13:04:44;;;;;;;5.28;2.67;;;20.10;99.90;;;;;;5057770;28;20096;-84
2021/06/25 13:07:20;;;;;;;7.55;3.33;;;20.10;99.90;;;;;;5058959;28;20028;-84